Time;durP1;ratioP1;P1;durP2;ratioP2;P2;SDS_P1;SDS_P2;PMS_P1;PMS_P2;Temp;Humidity;BMP_temperature;BMP_pressure;BME280_temperature;BME280_humidity;BME280_pressure;Samples;Min_cycle;Max_cycle;Signal;HPM_P1;HPM_P2
2022/08/16 00:00:34;;;;;;;65.50;54.58;;;27.40;51.50;;;;;;4947046;28;95602;-53
2022/08/16 00:03:01;;;;;;;64.63;54.08;;;27.40;51.50;;;;;;4937164;28;98283;-49
2022/08/16 00:05:28;;;;;;;66.00;54.72;;;27.40;51.60;;;;;;4947671;28;95712;-49
2022/08/16 00:07:54;;;;;;;65.50;54.75;;;27.40;51.60;;;;;;4949305;28;95911;-53
2022/08/16 00:10:22;;;;;;;67.22;54.65;;;27.40;51.60;;;;;;4945630;28;95379;-49
2022/08/16 00:12:48;;;;;;;66.43;54.33;;;27.40;51.60;;;;;;4949844;28;94490;-49
2022/08/16 00:15:24;;;;;;;66.70;54.47;;;27.40;51.60;;;;;;4944650;28;96074;-51
2022/08/16 00:17:50;;;;;;;65.75;54.47;;;27.30;51.50;;;;;;4946008;28;95222;-51
2022/08/16 00:20:17;;;;;;;65.50;54.45;;;27.40;51.60;;;;;;4949928;28;96192;-54
2022/08/16 00:22:43;;;;;;;65.50;54.15;;;27.40;51.70;;;;;;4948821;28;95600;-50
2022/08/16 00:25:13;;;;;;;66.18;54.55;;;27.30;51.50;;;;;;4949144;28;96709;-49
2022/08/16 00:27:39;;;;;;;65.38;54.42;;;27.30;51.50;;;;;;4949784;28;96021;-49
2022/08/16 00:30:06;;;;;;;65.75;54.20;;;27.30;51.50;;;;;;4955243;28;95147;-52
2022/08/16 00:32:32;;;;;;;65.70;54.20;;;27.30;51.70;;;;;;4946106;28;95844;-49
2022/08/16 00:34:58;;;;;;;66.03;54.33;;;27.30;51.70;;;;;;4946288;28;95005;-50
2022/08/16 00:37:25;;;;;;;66.50;54.75;;;27.30;51.70;;;;;;4949067;28;95839;-49
2022/08/16 00:39:52;;;;;;;66.07;54.38;;;27.30;51.70;;;;;;4951420;28;98404;-50
2022/08/16 00:42:18;;;;;;;66.43;54.40;;;27.30;51.70;;;;;;4947399;28;98230;-49
2022/08/16 00:44:54;;;;;;;65.47;54.58;;;27.30;51.70;;;;;;4947423;28;95688;-48
2022/08/16 00:47:22;;;;;;;66.15;54.45;;;27.30;51.70;;;;;;4949769;28;96108;-51
2022/08/16 00:49:48;;;;;;;65.60;54.65;;;27.30;51.80;;;;;;4962033;28;95014;-51
2022/08/16 00:52:14;;;;;;;65.28;54.35;;;27.30;51.80;;;;;;4950762;28;95206;-49
2022/08/16 00:54:39;;;;;;;66.47;54.47;;;27.30;51.80;;;;;;4943110;28;95754;-51
2022/08/16 00:57:06;;;;;;;66.15;54.72;;;27.30;51.80;;;;;;4950565;28;95155;-52
2022/08/16 00:59:35;;;;;;;65.82;54.90;;;27.20;51.70;;;;;;4951842;28;94811;-51
2022/08/16 01:02:05;;;;;;;65.28;54.28;;;27.20;51.70;;;;;;4949273;28;94176;-53
2022/08/16 01:04:30;;;;;;;65.47;54.65;;;27.20;51.80;;;;;;4939738;28;95144;-53
2022/08/16 01:06:58;;;;;;;65.68;54.67;;;27.30;51.90;;;;;;4946054;28;95346;-51
2022/08/16 01:09:24;;;;;;;65.25;54.55;;;27.20;51.80;;;;;;4942254;28;95966;-51
2022/08/16 01:11:50;;;;;;;66.35;54.63;;;27.20;51.90;;;;;;4944923;28;95641;-53
2022/08/16 01:14:22;;;;;;;65.60;54.50;;;27.20;51.90;;;;;;4943812;28;95979;-50
2022/08/16 01:16:49;;;;;;;67.03;54.58;;;27.20;51.90;;;;;;4947487;28;94919;-53
2022/08/16 01:19:41;;;;;;;65.95;54.45;;;27.20;51.90;;;;;;4950571;28;97176;-50
2022/08/16 01:22:37;;;;;;;65.65;54.47;;;27.20;52.00;;;;;;4949886;28;95711;-51
2022/08/16 01:25:08;;;;;;;65.65;54.55;;;27.20;52.00;;;;;;4953392;28;100148;-49
2022/08/16 01:27:57;;;;;;;66.13;54.60;;;27.20;52.10;;;;;;4954018;28;94807;-49
2022/08/16 01:30:33;;;;;;;66.07;54.70;;;27.10;52.00;;;;;;4945205;28;97002;-52
2022/08/16 01:33:02;;;;;;;64.85;54.42;;;27.10;52.00;;;;;;4945226;28;99178;-51
2022/08/16 01:35:38;;;;;;;65.30;54.63;;;27.10;52.10;;;;;;4953325;28;96637;-49
2022/08/16 01:38:26;;;;;;;65.47;54.78;;;27.10;52.20;;;;;;4950368;28;96137;-48
2022/08/16 01:40:58;;;;;;;64.60;54.20;;;27.10;52.20;;;;;;4949580;28;95093;-53
2022/08/16 01:43:24;;;;;;;66.00;54.25;;;27.10;52.20;;;;;;4948032;28;96643;-49
2022/08/16 01:45:58;;;;;;;65.75;54.70;;;27.00;52.10;;;;;;4953815;28;95414;-54
2022/08/16 01:48:29;;;;;;;64.90;54.42;;;27.10;52.80;;;;;;4947386;28;95082;-51
2022/08/16 01:50:55;;;;;;;66.43;54.47;;;27.10;52.30;;;;;;4951405;28;100757;-51
2022/08/16 01:53:21;;;;;;;64.55;54.00;;;27.10;52.30;;;;;;4952380;28;94258;-53
2022/08/16 01:55:47;;;;;;;65.13;54.40;;;27.10;52.30;;;;;;4952832;28;95013;-53
2022/08/16 01:58:15;;;;;;;67.22;55.25;;;27.00;52.30;;;;;;4952474;28;95703;-48
2022/08/16 02:00:42;;;;;;;66.68;54.42;;;27.00;52.30;;;;;;4946634;28;96531;-53
2022/08/16 02:03:08;;;;;;;66.00;54.53;;;27.00;52.30;;;;;;4951572;28;95037;-50
2022/08/16 02:05:34;;;;;;;66.03;55.03;;;27.00;52.40;;;;;;4947919;28;96357;-48
2022/08/16 02:08:00;;;;;;;66.55;54.83;;;27.00;52.30;;;;;;4950782;28;96371;-49
2022/08/16 02:10:26;;;;;;;65.05;54.75;;;27.00;52.40;;;;;;4951626;28;95531;-51
2022/08/16 02:12:52;;;;;;;65.60;54.90;;;27.00;52.40;;;;;;4951986;28;95086;-50
2022/08/16 02:15:21;;;;;;;64.85;54.22;;;27.00;52.50;;;;;;4949636;28;96760;-51
2022/08/16 02:17:47;;;;;;;65.10;54.85;;;27.00;52.50;;;;;;4961908;28;95052;-51
2022/08/16 02:20:14;;;;;;;66.25;54.67;;;27.00;52.50;;;;;;4949237;28;95956;-51
2022/08/16 02:22:40;;;;;;;65.57;54.45;;;27.00;52.50;;;;;;4957006;28;95028;-50
2022/08/16 02:25:12;;;;;;;66.68;54.85;;;27.00;52.60;;;;;;4951904;28;96834;-52
2022/08/16 02:27:40;;;;;;;65.25;54.30;;;26.90;52.50;;;;;;4949898;28;95234;-50
2022/08/16 02:30:11;;;;;;;66.40;54.47;;;27.00;52.50;;;;;;4951664;28;95125;-53
2022/08/16 02:32:36;;;;;;;;;;;27.00;52.60;;;;;;4946697;28;95254;-50
2022/08/16 02:35:03;;;;;;;65.88;54.45;;;27.00;52.70;;;;;;4952591;28;96330;-50
2022/08/16 02:37:29;;;;;;;64.50;54.30;;;26.90;52.50;;;;;;4950781;28;95348;-53
2022/08/16 02:39:55;;;;;;;66.03;54.58;;;26.90;52.60;;;;;;4954260;28;94924;-52
2022/08/16 02:42:20;;;;;;;67.40;54.75;;;26.90;52.60;;;;;;4955322;28;94568;-53
2022/08/16 02:44:46;;;;;;;65.97;54.85;;;26.90;52.70;;;;;;4950000;28;95153;-51
2022/08/16 02:47:12;;;;;;;65.13;54.85;;;26.90;52.70;;;;;;4952478;28;95024;-53
2022/08/16 02:49:37;;;;;;;65.50;54.63;;;26.90;52.70;;;;;;4946702;28;96832;-52
2022/08/16 02:52:03;;;;;;;64.95;54.55;;;26.90;53.20;;;;;;4953293;28;97453;-52
2022/08/16 02:54:29;;;;;;;65.53;54.53;;;26.90;52.60;;;;;;4951767;28;95657;-48
2022/08/16 02:56:55;;;;;;;64.63;54.42;;;26.80;52.60;;;;;;4955486;28;95640;-48
2022/08/16 02:59:21;;;;;;;65.40;54.72;;;26.90;52.60;;;;;;4942793;28;95493;-50
2022/08/16 03:01:46;;;;;;;65.40;54.42;;;26.90;52.70;;;;;;4946494;28;95337;-51
2022/08/16 03:04:12;;;;;;;65.00;54.85;;;26.80;52.60;;;;;;4945378;28;99492;-52
2022/08/16 03:06:38;;;;;;;65.13;54.80;;;26.90;52.70;;;;;;4948740;28;95910;-51
2022/08/16 03:09:03;;;;;;;65.35;55.08;;;26.80;52.70;;;;;;4956153;28;97051;-50
2022/08/16 03:11:31;;;;;;;66.13;55.05;;;26.80;52.70;;;;;;4949345;28;95203;-50
2022/08/16 03:13:58;;;;;;;66.20;55.13;;;26.80;52.80;;;;;;4947771;28;96533;-50
2022/08/16 03:16:25;;;;;;;64.97;54.67;;;26.90;52.80;;;;;;4945595;28;95992;-53
2022/08/16 03:18:50;;;;;;;64.95;54.65;;;26.80;52.70;;;;;;4955593;28;95762;-51
2022/08/16 03:21:16;;;;;;;65.63;54.67;;;26.80;52.80;;;;;;4951445;28;95098;-53
2022/08/16 03:23:42;;;;;;;65.93;54.88;;;26.80;52.70;;;;;;4948088;28;97296;-51
2022/08/16 03:26:08;;;;;;;65.43;54.63;;;26.80;52.70;;;;;;4950050;28;95103;-51
2022/08/16 03:28:34;;;;;;;66.55;54.83;;;26.80;52.70;;;;;;4952304;28;94974;-50
2022/08/16 03:30:59;;;;;;;65.72;54.67;;;26.80;52.70;;;;;;4945389;28;94512;-50
2022/08/16 03:33:25;;;;;;;65.60;54.88;;;26.80;52.70;;;;;;4955670;28;95856;-52
2022/08/16 03:35:52;;;;;;;65.68;54.88;;;26.80;52.70;;;;;;4948855;28;94956;-53
2022/08/16 03:38:18;;;;;;;65.25;54.63;;;26.80;52.80;;;;;;4950888;28;95870;-51
2022/08/16 03:40:45;;;;;;;65.32;54.90;;;26.80;52.80;;;;;;4951063;28;95268;-49
2022/08/16 03:43:11;;;;;;;65.55;54.30;;;26.80;52.80;;;;;;4945679;28;96063;-52
2022/08/16 03:45:39;;;;;;;66.10;54.75;;;26.80;52.80;;;;;;4942857;28;100635;-51
2022/08/16 03:48:06;;;;;;;65.57;54.88;;;26.80;53.00;;;;;;4943565;28;95397;-53
2022/08/16 03:50:32;;;;;;;65.20;54.58;;;26.80;52.90;;;;;;4953694;28;95418;-50
2022/08/16 03:52:58;;;;;;;65.57;54.80;;;26.70;52.90;;;;;;4953409;28;94941;-52
2022/08/16 03:55:24;;;;;;;65.95;55.08;;;26.80;52.90;;;;;;4947053;28;95727;-53
2022/08/16 03:57:52;;;;;;;66.03;54.55;;;26.80;52.90;;;;;;4950653;28;96304;-53
2022/08/16 04:00:23;;;;;;;66.15;55.03;;;26.80;52.90;;;;;;4944952;28;94738;-52
2022/08/16 04:02:49;;;;;;;64.53;54.13;;;26.80;52.90;;;;;;4934540;28;99001;-52
2022/08/16 04:05:16;;;;;;;65.70;55.35;;;26.70;52.80;;;;;;4939929;28;95653;-51
2022/08/16 04:07:42;;;;;;;65.63;54.78;;;26.70;53.00;;;;;;4947424;28;95945;-50
2022/08/16 04:10:10;;;;;;;65.38;54.70;;;26.70;53.00;;;;;;4952618;28;94712;-52
2022/08/16 04:12:37;;;;;;;67.03;55.08;;;26.70;53.00;;;;;;4946637;28;95057;-54
2022/08/16 04:15:06;;;;;;;65.10;54.90;;;26.70;53.00;;;;;;4949431;28;96054;-49
2022/08/16 04:17:32;;;;;;;64.75;54.50;;;26.70;53.00;;;;;;4941482;28;96016;-52
2022/08/16 04:19:57;;;;;;;64.50;54.70;;;26.70;53.00;;;;;;4959198;28;94392;-53
2022/08/16 04:22:24;;;;;;;65.65;55.05;;;26.70;53.00;;;;;;4949247;28;95221;-50
2022/08/16 04:24:50;;;;;;;65.85;55.05;;;26.70;52.90;;;;;;4951651;28;96171;-49
2022/08/16 04:27:15;;;;;;;67.50;55.05;;;26.70;53.00;;;;;;4951219;28;95826;-49
2022/08/16 04:29:41;;;;;;;68.32;55.00;;;26.70;53.00;;;;;;4953595;28;94765;-52
2022/08/16 04:32:07;;;;;;;67.43;55.00;;;26.70;53.60;;;;;;4945787;28;94986;-49
2022/08/16 04:34:35;;;;;;;64.78;54.85;;;26.70;53.00;;;;;;4950075;28;95406;-50
2022/08/16 04:37:01;;;;;;;65.38;54.97;;;26.70;53.00;;;;;;4954768;28;94773;-53
2022/08/16 04:39:30;;;;;;;66.43;55.28;;;26.70;53.00;;;;;;4954069;28;94961;-49
2022/08/16 04:41:56;;;;;;;66.10;54.80;;;26.70;53.10;;;;;;4946591;28;94873;-51
2022/08/16 04:44:22;;;;;;;67.32;55.22;;;26.70;53.00;;;;;;4953458;28;94982;-51
2022/08/16 04:46:48;;;;;;;67.15;54.80;;;26.70;53.10;;;;;;4956839;28;94979;-51
2022/08/16 04:49:14;;;;;;;66.47;55.17;;;26.70;53.10;;;;;;4949441;28;94890;-50
2022/08/16 04:51:42;;;;;;;67.43;55.55;;;26.70;53.10;;;;;;4949110;28;96073;-52
2022/08/16 04:54:09;;;;;;;66.35;55.20;;;26.70;53.10;;;;;;4952093;28;96159;-53
2022/08/16 04:56:35;;;;;;;66.78;55.15;;;26.70;53.20;;;;;;4952578;28;98118;-48
2022/08/16 04:59:01;;;;;;;66.47;54.85;;;26.70;53.10;;;;;;4952913;28;94622;-53
2022/08/16 05:01:27;;;;;;;67.10;55.10;;;26.70;53.10;;;;;;4952269;28;96608;-49
2022/08/16 05:03:53;;;;;;;67.47;54.85;;;26.70;53.10;;;;;;4955502;28;95607;-53
2022/08/16 05:06:19;;;;;;;67.32;55.90;;;26.70;53.20;;;;;;4951261;28;94908;-51
2022/08/16 05:08:45;;;;;;;71.40;56.75;;;26.50;53.80;;;;;;4956282;28;94654;-50
2022/08/16 05:11:12;;;;;;;72.18;57.47;;;26.30;54.70;;;;;;4961536;28;95267;-52
2022/08/16 05:13:41;;;;;;;73.40;58.70;;;26.20;55.20;;;;;;4955657;28;95583;-49
2022/08/16 05:16:09;;;;;;;74.22;59.15;;;26.10;55.70;;;;;;4952938;28;96011;-50
2022/08/16 05:18:35;;;;;;;75.85;59.67;;;26.00;56.70;;;;;;4951945;28;98177;-53
2022/08/16 05:21:02;;;;;;;73.28;59.05;;;25.90;56.40;;;;;;4958017;28;95793;-51
2022/08/16 05:23:27;;;;;;;71.38;59.38;;;25.80;56.70;;;;;;4950265;28;96609;-49
2022/08/16 05:25:53;;;;;;;73.18;59.17;;;25.80;56.70;;;;;;4958780;28;95157;-51
2022/08/16 05:28:19;;;;;;;77.18;59.55;;;25.80;57.00;;;;;;4956220;28;94783;-51
2022/08/16 05:30:45;;;;;;;76.07;59.40;;;25.80;57.20;;;;;;4960730;28;95363;-49
2022/08/16 05:33:11;;;;;;;73.93;59.00;;;25.80;57.20;;;;;;4954664;28;94189;-50
2022/08/16 05:35:37;;;;;;;71.57;58.90;;;25.80;57.30;;;;;;4950792;28;95003;-50
2022/08/16 05:38:02;;;;;;;73.65;58.95;;;25.80;57.40;;;;;;4956663;28;95134;-53
2022/08/16 05:40:29;;;;;;;74.45;59.17;;;25.70;57.40;;;;;;4957717;28;95785;-53
2022/08/16 05:42:54;;;;;;;75.85;58.67;;;25.70;57.60;;;;;;4960116;28;96043;-54
2022/08/16 05:45:20;;;;;;;71.85;58.58;;;25.60;57.70;;;;;;4947733;28;95133;-49
2022/08/16 05:47:46;;;;;;;73.60;58.55;;;25.60;57.90;;;;;;4947973;28;94808;-51
2022/08/16 05:50:12;;;;;;;74.30;58.80;;;25.60;58.00;;;;;;4959170;28;94728;-52
2022/08/16 05:52:38;;;;;;;74.20;59.15;;;25.60;58.00;;;;;;4957283;28;95663;-49
2022/08/16 05:55:04;;;;;;;75.70;58.63;;;25.60;58.20;;;;;;4954149;28;95000;-49
2022/08/16 05:57:30;;;;;;;73.07;58.53;;;25.70;57.90;;;;;;4954737;28;94446;-54
2022/08/16 05:59:56;;;;;;;74.40;58.13;;;25.80;57.80;;;;;;4946896;28;95736;-51
2022/08/16 06:02:26;;;;;;;71.72;57.45;;;26.00;57.20;;;;;;4946742;28;95526;-50
2022/08/16 06:04:52;;;;;;;72.30;57.60;;;26.10;56.40;;;;;;4952039;28;98651;-51
2022/08/16 06:07:18;;;;;;;75.18;57.47;;;26.30;56.20;;;;;;4962815;28;95200;-49
2022/08/16 06:09:43;;;;;;;72.65;57.72;;;26.30;56.20;;;;;;4955774;28;94961;-51
2022/08/16 06:12:10;;;;;;;72.13;57.45;;;26.30;56.00;;;;;;4952985;28;95102;-53
2022/08/16 06:14:36;;;;;;;71.15;57.28;;;26.30;55.80;;;;;;4955854;28;96108;-52
2022/08/16 06:17:02;;;;;;;71.57;57.10;;;26.40;55.80;;;;;;4961114;28;95001;-51
2022/08/16 06:19:27;;;;;;;72.28;57.30;;;26.40;55.70;;;;;;4953341;28;95277;-51
2022/08/16 06:21:53;;;;;;;73.18;57.25;;;26.40;55.70;;;;;;4956755;28;94699;-52
2022/08/16 06:24:18;;;;;;;69.85;56.72;;;26.40;55.80;;;;;;4956008;28;95194;-51
2022/08/16 06:26:44;;;;;;;68.72;57.05;;;26.40;55.60;;;;;;4951304;28;95304;-52
2022/08/16 06:29:10;;;;;;;70.10;57.10;;;26.50;55.60;;;;;;4949926;28;96968;-49
2022/08/16 06:31:36;;;;;;;68.80;56.53;;;26.50;55.50;;;;;;4951950;28;95582;-52
2022/08/16 06:34:02;;;;;;;71.28;56.63;;;26.50;55.50;;;;;;4960464;28;99859;-49
2022/08/16 06:36:28;;;;;;;68.75;56.33;;;26.50;55.40;;;;;;4951166;28;95291;-52
2022/08/16 06:38:54;;;;;;;70.10;57.00;;;26.50;55.50;;;;;;4962534;28;95792;-49
2022/08/16 06:41:19;;;;;;;69.07;56.78;;;26.50;55.50;;;;;;4945165;28;95152;-50
2022/08/16 06:43:46;;;;;;;69.55;56.92;;;26.50;55.40;;;;;;4961076;28;95460;-52
2022/08/16 06:46:34;;;;;;;69.63;56.42;;;26.50;55.50;;;;;;4950117;28;94247;-52
2022/08/16 06:49:05;;;;;;;69.75;56.28;;;26.50;55.50;;;;;;4954516;28;95321;-52
2022/08/16 06:51:31;;;;;;;70.90;56.38;;;26.50;55.30;;;;;;4951158;28;94908;-49
2022/08/16 06:53:56;;;;;;;69.65;56.60;;;26.50;55.30;;;;;;4956778;28;95644;-50
2022/08/16 06:56:22;;;;;;;69.50;57.08;;;26.50;55.20;;;;;;4953704;28;94684;-52
2022/08/16 06:58:48;;;;;;;70.43;56.58;;;26.50;55.20;;;;;;4950618;28;95495;-52
2022/08/16 07:01:14;;;;;;;68.55;56.30;;;26.60;55.30;;;;;;4952535;28;100983;-52
2022/08/16 07:03:39;;;;;;;69.43;56.60;;;26.60;55.30;;;;;;4960870;28;95541;-51
2022/08/16 07:06:05;;;;;;;69.22;56.55;;;26.60;55.20;;;;;;4956032;28;95015;-51
2022/08/16 07:08:31;;;;;;;68.85;56.70;;;26.50;55.20;;;;;;4957386;28;95310;-53
2022/08/16 07:10:57;;;;;;;68.72;56.72;;;26.60;55.30;;;;;;4948227;28;94776;-50
2022/08/16 07:13:24;;;;;;;69.72;56.25;;;26.60;55.20;;;;;;4954770;28;95149;-52
2022/08/16 07:15:50;;;;;;;70.18;56.22;;;26.60;55.10;;;;;;4949081;28;94993;-52
2022/08/16 07:18:19;;;;;;;67.05;55.95;;;26.60;55.10;;;;;;4953370;28;100296;-50
2022/08/16 07:20:45;;;;;;;68.13;56.35;;;26.70;55.00;;;;;;4956563;28;96961;-50
2022/08/16 07:23:11;;;;;;;66.60;56.28;;;26.70;55.00;;;;;;4952312;28;94921;-50
2022/08/16 07:25:37;;;;;;;67.32;55.75;;;26.60;54.80;;;;;;4950053;28;95009;-52
2022/08/16 07:28:04;;;;;;;67.32;56.20;;;26.60;54.80;;;;;;4954791;28;95293;-53
2022/08/16 07:30:30;;;;;;;68.43;55.92;;;26.60;54.80;;;;;;4956153;28;96429;-52
2022/08/16 07:32:56;;;;;;;68.93;55.90;;;26.60;54.80;;;;;;4946510;28;98803;-52
2022/08/16 07:35:22;;;;;;;67.93;56.28;;;26.70;54.70;;;;;;4951552;28;94305;-52
2022/08/16 07:37:48;;;;;;;69.75;56.50;;;26.70;54.70;;;;;;4952245;28;97195;-50
2022/08/16 07:40:14;;;;;;;68.30;56.58;;;26.60;54.70;;;;;;4952463;28;95179;-49
2022/08/16 07:42:40;;;;;;;69.38;56.22;;;26.60;54.50;;;;;;4949781;28;96463;-52
2022/08/16 07:45:07;;;;;;;68.10;56.05;;;26.70;54.50;;;;;;4957506;28;94780;-52
2022/08/16 07:47:32;;;;;;;68.47;56.10;;;26.70;54.50;;;;;;4952323;28;96544;-48
2022/08/16 07:50:00;;;;;;;68.03;56.08;;;26.70;54.40;;;;;;4950446;28;94751;-52
2022/08/16 07:52:25;;;;;;;68.50;56.45;;;26.70;54.30;;;;;;4956759;28;94853;-54
2022/08/16 07:54:51;;;;;;;68.40;56.08;;;26.70;54.20;;;;;;4954324;28;95323;-52
2022/08/16 07:57:16;;;;;;;67.75;55.95;;;26.70;54.00;;;;;;4952904;28;95491;-51
2022/08/16 07:59:45;;;;;;;67.18;56.20;;;26.80;53.80;;;;;;4958971;28;95030;-51
2022/08/16 08:02:12;;;;;;;69.18;56.05;;;26.80;53.70;;;;;;4956084;28;96812;-48
2022/08/16 08:04:39;;;;;;;67.55;56.40;;;26.80;53.70;;;;;;4952896;28;95282;-52
2022/08/16 08:07:05;;;;;;;69.78;56.25;;;26.80;53.60;;;;;;4956197;28;96205;-51
2022/08/16 08:09:31;;;;;;;67.68;56.05;;;26.90;53.60;;;;;;4948020;28;96464;-51
2022/08/16 08:11:57;;;;;;;67.32;55.83;;;26.90;53.50;;;;;;4953263;28;94894;-50
2022/08/16 08:14:23;;;;;;;67.68;56.10;;;26.90;53.50;;;;;;4960582;28;101116;-49
2022/08/16 08:16:49;;;;;;;67.80;56.08;;;26.90;53.40;;;;;;4950451;28;98437;-53
2022/08/16 08:19:15;;;;;;;67.95;55.60;;;26.90;53.50;;;;;;4955475;28;98219;-52
2022/08/16 08:21:41;;;;;;;66.63;55.28;;;26.90;53.40;;;;;;4954441;28;95123;-50
2022/08/16 08:24:09;;;;;;;69.47;56.00;;;26.90;53.30;;;;;;4958420;28;94692;-51
2022/08/16 08:26:35;;;;;;;66.70;55.60;;;26.90;53.30;;;;;;4952770;28;95288;-53
2022/08/16 08:29:02;;;;;;;68.07;56.05;;;26.90;53.30;;;;;;4953532;28;95198;-52
2022/08/16 08:31:28;;;;;;;68.25;55.92;;;27.00;53.30;;;;;;4950728;28;95656;-50
2022/08/16 08:33:55;;;;;;;67.72;55.90;;;27.00;53.20;;;;;;4952676;28;95650;-50
2022/08/16 08:36:29;;;;;;;68.28;56.10;;;27.00;53.10;;;;;;4950802;28;98952;-53
2022/08/16 08:38:55;;;;;;;66.03;55.85;;;27.00;53.20;;;;;;4947317;28;95835;-54
2022/08/16 08:41:23;;;;;;;67.70;56.15;;;27.00;53.00;;;;;;4954106;28;94524;-50
2022/08/16 08:43:48;;;;;;;69.30;56.50;;;27.10;53.10;;;;;;4956728;28;94649;-51
2022/08/16 08:46:14;;;;;;;66.95;56.10;;;27.10;53.20;;;;;;4951954;28;95485;-52
2022/08/16 08:48:40;;;;;;;69.05;56.22;;;27.10;53.20;;;;;;4952654;28;95126;-50
2022/08/16 08:51:07;;;;;;;67.03;55.65;;;27.10;53.30;;;;;;4954246;28;94586;-52
2022/08/16 08:53:34;;;;;;;70.43;56.63;;;27.10;53.30;;;;;;4946171;28;97336;-51
2022/08/16 08:56:03;;;;;;;68.40;56.15;;;27.10;53.30;;;;;;4957100;28;96203;-49
2022/08/16 08:58:29;;;;;;;67.20;56.00;;;27.10;53.30;;;;;;4947916;28;98225;-51
2022/08/16 09:00:56;;;;;;;68.57;56.42;;;27.20;53.40;;;;;;4952788;28;94970;-52
2022/08/16 09:03:22;;;;;;;69.15;56.13;;;27.20;53.20;;;;;;4952200;28;94842;-53
2022/08/16 09:05:50;;;;;;;67.95;56.22;;;27.30;53.30;;;;;;4949505;28;95504;-52
2022/08/16 09:08:16;;;;;;;68.05;56.30;;;27.30;53.20;;;;;;4952388;28;95087;-50
2022/08/16 09:10:42;;;;;;;68.78;56.72;;;27.30;53.10;;;;;;4957221;28;94915;-51
2022/08/16 09:13:07;;;;;;;67.88;56.13;;;27.40;53.20;;;;;;4952178;28;94364;-49
2022/08/16 09:15:33;;;;;;;68.35;56.03;;;27.40;53.10;;;;;;4950551;28;98301;-50
2022/08/16 09:18:00;;;;;;;68.55;56.15;;;27.40;52.90;;;;;;4949396;28;96963;-51
2022/08/16 09:20:28;;;;;;;70.03;56.08;;;27.40;52.90;;;;;;4953400;28;96990;-51
2022/08/16 09:22:54;;;;;;;68.07;55.90;;;27.50;52.80;;;;;;4948625;28;94694;-51
2022/08/16 09:25:21;;;;;;;68.03;55.95;;;27.50;52.80;;;;;;4952280;28;95797;-52
2022/08/16 09:27:47;;;;;;;67.97;56.10;;;27.50;52.70;;;;;;4956457;28;95152;-51
2022/08/16 09:30:13;;;;;;;68.90;56.42;;;27.60;52.50;;;;;;4956062;28;95018;-49
2022/08/16 09:32:39;;;;;;;68.75;56.15;;;27.60;52.50;;;;;;4950844;28;95648;-51
2022/08/16 09:35:05;;;;;;;67.55;56.20;;;27.60;52.40;;;;;;4946685;28;95299;-54
2022/08/16 09:37:32;;;;;;;68.43;56.17;;;27.70;52.40;;;;;;4955929;28;95110;-54
2022/08/16 09:39:59;;;;;;;67.82;56.15;;;27.60;52.30;;;;;;4949417;28;94708;-54
2022/08/16 09:42:27;;;;;;;67.45;56.03;;;27.70;52.40;;;;;;4945625;28;94890;-51
2022/08/16 09:44:53;;;;;;;68.07;56.15;;;27.60;52.40;;;;;;4954701;28;97361;-52
2022/08/16 09:47:18;;;;;;;67.20;56.20;;;27.60;52.40;;;;;;4953219;28;94977;-52
2022/08/16 09:49:44;;;;;;;68.88;56.03;;;27.70;52.40;;;;;;4952542;28;98257;-50
2022/08/16 09:52:10;;;;;;;69.40;56.08;;;27.70;52.30;;;;;;4959123;28;95100;-51
2022/08/16 09:54:37;;;;;;;68.35;56.22;;;27.70;52.20;;;;;;4955442;28;95491;-53
2022/08/16 09:57:03;;;;;;;67.60;55.45;;;27.70;52.20;;;;;;4958180;28;95072;-52
2022/08/16 09:59:30;;;;;;;67.63;55.90;;;27.80;52.20;;;;;;4954205;28;95102;-53
2022/08/16 10:01:55;;;;;;;67.25;55.90;;;27.60;52.10;;;;;;4948190;28;94471;-54
2022/08/16 10:04:24;;;;;;;68.70;56.03;;;27.60;52.50;;;;;;4951513;28;98206;-51
2022/08/16 10:06:49;;;;;;;66.93;55.63;;;27.60;52.10;;;;;;4948103;28;98314;-52
2022/08/16 10:09:15;;;;;;;68.07;56.15;;;27.70;52.10;;;;;;4954670;28;96144;-53
2022/08/16 10:14:29;;;;;;;69.82;55.63;;;27.70;52.20;;;;;;4951648;28;95144;-52
2022/08/16 10:17:00;;;;;;;67.35;56.03;;;27.60;52.20;;;;;;4953697;28;99117;-48
2022/08/16 10:19:27;;;;;;;67.78;55.47;;;27.70;52.30;;;;;;4948707;28;99077;-54
2022/08/16 10:21:54;;;;;;;67.70;55.72;;;27.80;52.50;;;;;;4952513;28;95955;-50
2022/08/16 10:24:20;;;;;;;66.97;55.83;;;27.80;52.30;;;;;;4956782;28;95884;-51
2022/08/16 10:26:46;;;;;;;67.28;55.83;;;27.80;52.20;;;;;;4955776;28;97760;-51
2022/08/16 10:29:12;;;;;;;69.57;55.05;;;27.80;52.30;;;;;;4952857;28;94719;-50
2022/08/16 10:31:38;;;;;;;68.22;55.17;;;27.90;52.00;;;;;;4948804;28;95118;-52
2022/08/16 10:34:05;;;;;;;67.13;55.55;;;27.80;51.90;;;;;;4955666;28;96112;-48
2022/08/16 10:36:31;;;;;;;66.78;55.38;;;27.80;52.10;;;;;;4954749;28;99440;-48
2022/08/16 10:38:56;;;;;;;67.93;55.58;;;27.90;51.80;;;;;;4954406;28;95490;-51
2022/08/16 10:41:22;;;;;;;68.03;55.60;;;27.90;51.80;;;;;;4952524;28;94992;-52
2022/08/16 10:43:49;;;;;;;67.93;55.47;;;27.90;51.80;;;;;;4952365;28;95230;-49
2022/08/16 10:46:15;;;;;;;67.88;55.67;;;27.80;52.70;;;;;;4944650;28;95209;-48
2022/08/16 10:48:43;;;;;;;66.78;55.58;;;27.60;52.30;;;;;;4952511;28;95726;-47
2022/08/16 10:51:09;;;;;;;66.72;55.25;;;27.50;52.60;;;;;;4947103;28;97365;-47
2022/08/16 10:53:36;;;;;;;68.70;55.90;;;27.40;52.80;;;;;;4953234;28;96711;-47
2022/08/16 10:56:05;;;;;;;69.35;55.45;;;27.40;53.00;;;;;;4949768;28;95199;-48
2022/08/16 10:58:32;;;;;;;66.90;55.20;;;27.40;53.10;;;;;;4941778;28;97043;-46
2022/08/16 11:00:58;;;;;;;67.57;55.58;;;27.30;53.10;;;;;;4950973;28;94778;-46
2022/08/16 11:03:26;;;;;;;67.20;55.50;;;27.30;53.10;;;;;;4950043;28;96809;-46
2022/08/16 11:05:52;;;;;;;66.80;55.20;;;27.30;53.20;;;;;;4950216;28;95104;-46
2022/08/16 11:08:17;;;;;;;66.95;55.10;;;27.40;53.00;;;;;;4953725;28;100204;-46
2022/08/16 11:10:45;;;;;;;68.70;55.42;;;27.50;52.90;;;;;;4956247;28;95090;-47
2022/08/16 11:13:13;;;;;;;69.53;55.72;;;27.50;52.90;;;;;;4956858;28;94975;-47
2022/08/16 11:15:43;;;;;;;67.55;55.30;;;27.50;53.00;;;;;;4947029;28;95327;-47
2022/08/16 11:18:10;;;;;;;67.70;55.40;;;27.40;53.10;;;;;;4947185;28;95785;-47
2022/08/16 11:20:36;;;;;;;67.32;55.63;;;27.40;53.20;;;;;;4951455;28;95948;-48
2022/08/16 11:23:02;;;;;;;66.32;54.70;;;27.40;53.20;;;;;;4952329;28;96505;-48
2022/08/16 11:25:30;;;;;;;66.38;54.75;;;27.40;53.30;;;;;;4952580;28;96422;-49
2022/08/16 11:27:56;;;;;;;66.32;55.20;;;27.40;53.40;;;;;;4950997;28;94669;-51
2022/08/16 11:30:23;;;;;;;66.10;54.88;;;27.30;53.30;;;;;;4954984;28;95380;-47
2022/08/16 11:32:48;;;;;;;67.32;55.45;;;27.30;53.30;;;;;;4949005;28;100087;-46
2022/08/16 11:35:19;;;;;;;67.65;54.88;;;27.30;53.30;;;;;;4948064;28;95678;-44
2022/08/16 11:37:47;;;;;;;;;;;27.40;53.30;;;;;;4961267;28;95250;-49
2022/08/16 11:40:13;;;;;;;66.30;54.90;;;27.60;53.00;;;;;;4960924;28;94150;-48
2022/08/16 11:42:39;;;;;;;68.75;55.13;;;27.50;52.90;;;;;;4954696;28;96259;-51
2022/08/16 11:45:05;;;;;;;66.63;55.13;;;27.40;53.00;;;;;;4952163;28;95152;-48
2022/08/16 11:47:30;;;;;;;67.13;55.00;;;27.40;53.10;;;;;;4949481;28;100754;-49
2022/08/16 11:49:56;;;;;;;66.43;55.20;;;27.40;53.20;;;;;;4957520;28;95062;-49
2022/08/16 11:52:22;;;;;;;66.88;55.05;;;27.40;53.20;;;;;;4951817;28;95276;-48
2022/08/16 11:54:49;;;;;;;66.65;55.08;;;27.40;53.20;;;;;;4953640;28;95973;-48
2022/08/16 11:57:15;;;;;;;66.32;55.00;;;27.40;53.20;;;;;;4948585;28;95291;-47
2022/08/16 11:59:40;;;;;;;66.30;54.97;;;27.40;53.20;;;;;;4954992;28;95263;-48
2022/08/16 12:02:08;;;;;;;68.05;54.67;;;27.40;53.20;;;;;;4952930;28;98167;-48
2022/08/16 12:04:34;;;;;;;67.25;54.75;;;27.40;53.30;;;;;;4953084;28;95036;-47
2022/08/16 12:07:01;;;;;;;65.68;54.72;;;27.40;53.30;;;;;;4958942;28;95414;-47
2022/08/16 12:09:29;;;;;;;67.63;55.35;;;27.40;53.20;;;;;;4954144;28;95122;-49
2022/08/16 12:11:55;;;;;;;65.55;54.63;;;27.40;53.20;;;;;;4954628;28;96072;-48
2022/08/16 12:14:21;;;;;;;66.25;54.92;;;27.40;53.20;;;;;;4955346;28;95019;-50
2022/08/16 12:16:47;;;;;;;66.47;55.03;;;27.40;53.20;;;;;;4960391;28;96321;-51
2022/08/16 12:19:14;;;;;;;65.78;54.28;;;27.40;53.20;;;;;;4954236;28;95137;-49
2022/08/16 12:21:41;;;;;;;66.20;54.85;;;27.40;53.10;;;;;;4945921;28;95996;-46
2022/08/16 12:24:06;;;;;;;66.85;55.03;;;27.40;53.10;;;;;;4950639;28;94987;-51
2022/08/16 12:26:32;;;;;;;68.20;54.83;;;27.40;53.00;;;;;;4955158;28;95960;-48
2022/08/16 12:29:00;;;;;;;66.53;54.95;;;27.40;53.00;;;;;;4950900;28;94633;-49